createdAt,value
2022-08-03T00:01:43.096Z,21.27
2022-08-03T00:04:11.109Z,21.28
2022-08-03T00:06:39.461Z,21.27
2022-08-03T00:09:07.521Z,21.23
2022-08-03T00:11:35.711Z,21.19
2022-08-03T00:14:03.686Z,21.24
2022-08-03T00:16:33.573Z,21.22
2022-08-03T00:19:02.223Z,21.24
2022-08-03T00:21:30.278Z,21.28
2022-08-03T00:23:58.086Z,21.30
2022-08-03T00:26:25.951Z,21.34
2022-08-03T00:28:53.959Z,21.37
2022-08-03T00:31:29.697Z,21.43
2022-08-03T00:34:10.948Z,21.35
2022-08-03T00:36:40.695Z,21.38
2022-08-03T00:39:08.643Z,21.20
2022-08-03T00:41:36.535Z,21.20
2022-08-03T00:44:04.886Z,21.23
2022-08-03T00:46:32.859Z,21.04
2022-08-03T00:49:00.738Z,20.80
2022-08-03T00:51:30.030Z,20.65
2022-08-03T00:53:57.817Z,20.62
2022-08-03T00:56:25.775Z,20.59
2022-08-03T00:58:57.886Z,20.49
2022-08-03T01:01:25.759Z,20.42
2022-08-03T01:03:58.578Z,20.41
2022-08-03T01:06:35.102Z,20.53
2022-08-03T01:09:13.508Z,20.65
2022-08-03T01:12:00.469Z,20.73
2022-08-03T01:14:35.274Z,20.79
2022-08-03T01:17:09.565Z,20.59
2022-08-03T01:19:51.565Z,20.55
2022-08-03T01:22:38.299Z,20.63
2022-08-03T01:25:16.261Z,20.63
2022-08-03T01:27:56.015Z,20.69
2022-08-03T01:30:29.071Z,20.56
2022-08-03T01:33:01.993Z,20.57
2022-08-03T01:35:38.589Z,20.53
2022-08-03T01:38:11.064Z,20.59
2022-08-03T01:40:41.760Z,20.48
2022-08-03T01:43:12.455Z,20.57
2022-08-03T01:45:44.876Z,20.49
2022-08-03T01:48:16.908Z,20.39
2022-08-03T01:50:46.150Z,20.14
2022-08-03T01:53:16.447Z,20.21
2022-08-03T01:55:45.535Z,20.21
2022-08-03T01:58:14.684Z,20.25
2022-08-03T02:00:47.287Z,20.10
2022-08-03T02:03:17.430Z,20.04
2022-08-03T02:05:46.779Z,20.11
2022-08-03T02:08:16.903Z,20.31
2022-08-03T02:10:46.159Z,20.46
2022-08-03T02:13:16.260Z,20.36
2022-08-03T02:15:45.872Z,20.36
2022-08-03T02:18:15.545Z,20.22
2022-08-03T02:20:45.030Z,20.32
2022-08-03T02:23:13.493Z,20.26
2022-08-03T02:25:45.863Z,20.29
2022-08-03T02:28:19.112Z,20.32
2022-08-03T02:30:53.724Z,20.35
2022-08-03T02:33:28.542Z,20.26
2022-08-03T02:35:58.637Z,20.24
2022-08-03T02:38:29.845Z,20.25
2022-08-03T02:40:59.916Z,20.20
2022-08-03T02:43:56.832Z,20.14
2022-08-03T02:46:22.010Z,20.07
2022-08-03T02:48:53.089Z,20.17
2022-08-03T02:51:22.323Z,20.22
2022-08-03T02:53:51.820Z,20.26
2022-08-03T02:56:20.639Z,20.26
2022-08-03T02:58:50.995Z,20.21
2022-08-03T03:01:21.488Z,20.18
2022-08-03T03:03:50.852Z,20.11
2022-08-03T03:06:20.507Z,20.01
2022-08-03T03:08:56.626Z,20.04
2022-08-03T03:11:27.911Z,20.00
2022-08-03T03:13:58.120Z,19.93
2022-08-03T03:16:28.072Z,19.97
2022-08-03T03:18:56.354Z,19.90
2022-08-03T03:21:25.082Z,19.97
2022-08-03T03:23:53.877Z,19.91
2022-08-03T03:26:21.912Z,19.94
2022-08-03T03:28:50.085Z,19.95
2022-08-03T03:31:17.941Z,19.91
2022-08-03T03:33:47.614Z,19.97
2022-08-03T03:36:15.841Z,20.00
2022-08-03T03:38:43.711Z,20.01
2022-08-03T03:41:11.620Z,20.11
2022-08-03T03:43:39.545Z,20.14
2022-08-03T03:46:07.434Z,20.12
2022-08-03T03:48:35.558Z,20.11
2022-08-03T03:51:04.921Z,20.12
2022-08-03T03:53:32.785Z,20.01
2022-08-03T03:56:02.893Z,20.07
2022-08-03T03:58:32.612Z,19.98
2022-08-03T04:01:01.272Z,19.97
2022-08-03T04:03:29.247Z,20.04
2022-08-03T04:06:15.573Z,20.12
2022-08-03T04:09:02.119Z,20.04
2022-08-03T04:11:33.226Z,20.07
2022-08-03T04:14:07.394Z,20.05
2022-08-03T04:16:43.172Z,20.05
2022-08-03T04:19:17.479Z,20.05
2022-08-03T04:21:52.924Z,20.14
2022-08-03T04:24:26.587Z,20.14
2022-08-03T04:26:55.754Z,20.17
2022-08-03T04:29:23.492Z,20.11
2022-08-03T04:31:53.268Z,20.10
2022-08-03T04:34:21.163Z,20.11
2022-08-03T04:36:51.336Z,20.18
2022-08-03T04:39:26.574Z,20.22
2022-08-03T04:42:17.081Z,20.21
2022-08-03T04:44:46.283Z,20.24
2022-08-03T04:47:14.196Z,20.20
2022-08-03T04:49:42.594Z,20.25
2022-08-03T04:52:11.219Z,20.29
2022-08-03T04:54:50.129Z,20.29
2022-08-03T04:57:22.999Z,20.32
2022-08-03T04:59:58.211Z,20.34
2022-08-03T05:02:29.848Z,20.36
2022-08-03T05:04:57.853Z,20.48
2022-08-03T05:07:25.769Z,20.53
2022-08-03T05:09:57.654Z,20.66
2022-08-03T05:12:32.794Z,20.71
2022-08-03T05:15:01.404Z,21.00
2022-08-03T05:17:29.584Z,21.27
2022-08-03T05:19:57.632Z,21.98
2022-08-03T05:22:25.425Z,22.61
2022-08-03T05:24:53.285Z,23.28
2022-08-03T05:27:22.540Z,23.95
2022-08-03T05:29:51.473Z,24.48
2022-08-03T05:32:19.501Z,25.08
2022-08-03T05:34:47.689Z,25.71
2022-08-03T05:37:15.420Z,25.96
2022-08-03T05:39:43.356Z,26.49
2022-08-03T05:42:11.677Z,27.13
2022-08-03T05:44:42.053Z,27.60
2022-08-03T05:47:09.913Z,28.05
2022-08-03T05:49:37.796Z,28.35
2022-08-03T05:52:21.863Z,28.56
2022-08-03T05:54:56.199Z,28.42
2022-08-03T05:57:25.741Z,28.84
2022-08-03T05:59:58.347Z,29.11
2022-08-03T06:02:27.124Z,29.82
2022-08-03T06:04:55.043Z,30.08
2022-08-03T06:07:22.997Z,30.48
2022-08-03T06:10:34.491Z,31.08
2022-08-03T06:12:41.108Z,31.26
2022-08-03T06:15:11.738Z,31.58
2022-08-03T06:17:47.064Z,32.14
2022-08-03T06:20:16.909Z,32.74
2022-08-03T06:22:50.765Z,33.52
2022-08-03T06:25:19.387Z,34.33
2022-08-03T06:27:49.237Z,33.86
2022-08-03T06:30:21.269Z,34.23
2022-08-03T06:32:51.748Z,34.59
2022-08-03T06:35:20.546Z,34.20
2022-08-03T06:37:49.025Z,34.27
2022-08-03T06:40:21.890Z,34.89
2022-08-03T06:42:52.540Z,35.53
2022-08-03T06:45:21.943Z,35.69
2022-08-03T06:48:01.587Z,36.42
2022-08-03T06:50:29.653Z,36.34
2022-08-03T06:52:57.342Z,36.23
2022-08-03T06:55:25.503Z,36.41
2022-08-03T06:57:53.283Z,36.17
2022-08-03T07:00:22.404Z,36.25
2022-08-03T07:02:52.629Z,36.61
2022-08-03T07:05:24.057Z,37.37
2022-08-03T07:07:51.925Z,37.09
2022-08-03T07:10:19.752Z,36.52
2022-08-03T07:12:55.875Z,35.80
2022-08-03T07:15:55.082Z,35.40
2022-08-03T07:18:14.340Z,34.96
2022-08-03T07:20:42.305Z,34.66
2022-08-03T07:23:11.975Z,34.45
2022-08-03T07:25:47.203Z,33.64
2022-08-03T07:28:15.057Z,33.04
2022-08-03T07:30:44.345Z,33.18
2022-08-03T07:33:12.211Z,33.02
2022-08-03T07:35:40.065Z,34.05
2022-08-03T07:38:07.964Z,34.78
2022-08-03T07:40:35.892Z,35.70
2022-08-03T07:43:04.967Z,36.35
2022-08-03T07:45:33.231Z,36.72
2022-08-03T07:48:02.471Z,37.23
2022-08-03T07:50:30.409Z,38.90
2022-08-03T07:52:59.708Z,39.79
2022-08-03T07:55:28.634Z,39.82
2022-08-03T07:58:10.014Z,40.36
2022-08-03T08:00:37.988Z,39.99
2022-08-03T08:03:07.082Z,40.60
2022-08-03T08:05:34.998Z,41.13
2022-08-03T08:08:03.673Z,41.38
2022-08-03T08:10:32.665Z,41.35
2022-08-03T08:13:01.695Z,40.49
2022-08-03T08:15:29.907Z,40.62
2022-08-03T08:17:59.759Z,40.84
2022-08-03T08:20:31.828Z,40.29
2022-08-03T08:23:02.050Z,40.29
2022-08-03T08:25:32.326Z,40.50
2022-08-03T08:28:29.371Z,40.26
2022-08-03T08:30:50.770Z,40.47
2022-08-03T08:33:23.009Z,40.04
2022-08-03T08:35:54.458Z,40.17
2022-08-03T08:38:23.201Z,40.13
2022-08-03T08:40:51.486Z,39.75
2022-08-03T08:43:19.352Z,39.57
2022-08-03T08:45:48.386Z,39.16
2022-08-03T08:48:18.829Z,40.67
2022-08-03T08:50:46.898Z,41.00
2022-08-03T08:53:18.354Z,40.77
2022-08-03T08:55:59.270Z,40.82
2022-08-03T08:58:30.986Z,41.14
2022-08-03T09:00:58.906Z,40.74
2022-08-03T09:03:30.291Z,40.53
2022-08-03T09:06:01.460Z,40.23
2022-08-03T09:08:32.743Z,40.67
2022-08-03T09:11:00.808Z,40.08
2022-08-03T09:13:29.114Z,39.53
2022-08-03T09:16:19.020Z,39.76
2022-08-03T09:18:49.145Z,40.49
2022-08-03T09:21:35.513Z,39.79
2022-08-03T09:24:10.500Z,40.68
2022-08-03T09:26:52.162Z,40.67
2022-08-03T09:29:22.105Z,40.73
2022-08-03T09:31:49.920Z,40.82
2022-08-03T09:34:19.488Z,41.13
2022-08-03T09:36:48.491Z,41.65
2022-08-03T09:39:19.441Z,41.20
2022-08-03T09:41:48.720Z,40.13
2022-08-03T09:44:24.912Z,39.61
2022-08-03T09:46:56.202Z,39.34
2022-08-03T09:49:25.197Z,39.81
2022-08-03T09:52:31.859Z,38.93
2022-08-03T09:54:44.063Z,39.03
2022-08-03T09:57:23.732Z,38.80
2022-08-03T09:59:54.997Z,38.80
2022-08-03T10:02:40.984Z,39.06
2022-08-03T10:05:10.780Z,38.82
2022-08-03T10:07:49.823Z,38.04
2022-08-03T10:10:30.318Z,38.08
2022-08-03T10:12:59.220Z,37.61
2022-08-03T10:16:23.069Z,37.65
2022-08-03T10:18:15.324Z,37.77
2022-08-03T10:20:44.904Z,37.82
2022-08-03T10:23:14.525Z,38.29
2022-08-03T10:25:47.646Z,38.32
2022-08-03T10:28:19.315Z,38.77
2022-08-03T10:30:50.698Z,38.36
2022-08-03T10:33:51.371Z,38.49
2022-08-03T10:36:11.736Z,38.16
2022-08-03T10:38:52.425Z,38.01
2022-08-03T10:41:22.841Z,38.32
2022-08-03T10:43:57.481Z,38.60
2022-08-03T10:46:27.211Z,38.56
2022-08-03T10:48:56.539Z,38.44
2022-08-03T10:51:25.287Z,37.77
2022-08-03T10:53:55.088Z,38.18
2022-08-03T10:57:04.134Z,38.83
2022-08-03T11:00:03.687Z,39.00
2022-08-03T11:03:08.784Z,38.59
2022-08-03T11:05:41.894Z,37.70
2022-08-03T11:08:35.442Z,38.15
2022-08-03T11:11:24.993Z,38.84
2022-08-03T11:14:03.174Z,38.73
2022-08-03T11:16:34.973Z,39.53
2022-08-03T11:19:04.866Z,39.76
2022-08-03T11:21:58.117Z,39.76
2022-08-03T11:25:00.244Z,39.51
2022-08-03T11:27:30.304Z,39.51
2022-08-03T11:30:03.067Z,39.69
2022-08-03T11:32:53.701Z,38.70
2022-08-03T11:35:23.510Z,38.83
2022-08-03T11:38:07.192Z,39.17
2022-08-03T11:40:37.073Z,39.50
2022-08-03T11:43:05.546Z,39.30
2022-08-03T11:45:35.472Z,39.17
2022-08-03T11:48:14.833Z,38.73
2022-08-03T11:50:45.215Z,38.25
2022-08-03T11:53:17.916Z,38.39
2022-08-03T11:55:48.922Z,39.02
2022-08-03T11:59:01.067Z,39.27
2022-08-03T12:01:08.716Z,39.48
2022-08-03T12:03:37.250Z,39.57
2022-08-03T12:06:10.587Z,38.60
2022-08-03T12:08:38.461Z,38.67
2022-08-03T12:11:08.995Z,38.84
2022-08-03T12:14:08.891Z,38.86
2022-08-03T12:16:30.910Z,39.34
2022-08-03T12:19:00.879Z,39.09
2022-08-03T12:21:29.455Z,38.33
2022-08-03T12:23:58.958Z,37.43
2022-08-03T12:26:27.504Z,37.73
2022-08-03T12:28:55.611Z,37.78
2022-08-03T12:31:23.638Z,37.96
2022-08-03T12:34:01.821Z,38.04
2022-08-03T12:36:30.781Z,38.40
2022-08-03T12:39:00.322Z,38.56
2022-08-03T12:41:34.122Z,38.21
2022-08-03T12:44:03.585Z,38.31
2022-08-03T12:46:33.787Z,37.85
2022-08-03T12:49:11.222Z,37.92
2022-08-03T12:51:56.316Z,37.57
2022-08-03T12:54:26.020Z,37.48
2022-08-03T12:57:04.468Z,37.41
2022-08-03T12:59:40.345Z,37.15
2022-08-03T13:02:16.252Z,37.06
2022-08-03T13:04:48.035Z,37.26
2022-08-03T13:07:18.037Z,37.30
2022-08-03T13:09:47.921Z,37.02
2022-08-03T13:12:17.133Z,36.90
2022-08-03T13:14:46.146Z,37.00
2022-08-03T13:17:14.197Z,36.53
2022-08-03T13:19:42.338Z,36.42
2022-08-03T13:22:16.203Z,36.15
2022-08-03T13:24:45.871Z,35.91
2022-08-03T13:27:23.366Z,35.90
2022-08-03T13:30:02.212Z,35.39
2022-08-03T13:32:30.076Z,35.51
2022-08-03T13:34:57.949Z,35.20
2022-08-03T13:37:27.865Z,34.85
2022-08-03T13:39:59.011Z,35.20
2022-08-03T13:42:29.674Z,35.22
2022-08-03T13:44:57.660Z,35.36
2022-08-03T13:47:25.763Z,35.40
2022-08-03T13:49:54.354Z,35.54
2022-08-03T13:52:30.191Z,35.12
2022-08-03T13:54:58.493Z,34.68
2022-08-03T13:58:02.454Z,34.18
2022-08-03T14:00:26.632Z,34.27
2022-08-03T14:03:02.949Z,34.00
2022-08-03T14:05:33.735Z,34.11
2022-08-03T14:08:05.360Z,34.21
2022-08-03T14:10:34.752Z,34.27
2022-08-03T14:13:02.648Z,34.41
2022-08-03T14:15:30.584Z,33.92
2022-08-03T14:17:59.111Z,34.04
2022-08-03T14:20:38.632Z,34.20
2022-08-03T14:23:16.985Z,34.03
2022-08-03T14:25:52.539Z,33.87
2022-08-03T14:28:23.305Z,33.81
2022-08-03T14:30:51.641Z,33.74
2022-08-03T14:33:19.583Z,33.89
2022-08-03T14:35:47.721Z,33.94
2022-08-03T14:38:17.199Z,34.01
2022-08-03T14:40:45.261Z,33.81
2022-08-03T14:43:13.507Z,33.92
2022-08-03T14:45:42.090Z,33.86
2022-08-03T14:50:31.464Z,33.83
2022-08-03T14:50:58.102Z,33.80
2022-08-03T14:53:28.705Z,33.76
2022-08-03T14:55:56.796Z,33.81
2022-08-03T14:58:26.799Z,33.55
2022-08-03T15:00:55.954Z,33.72
2022-08-03T15:03:25.317Z,33.78
2022-08-03T15:05:53.977Z,33.78
2022-08-03T15:08:22.656Z,33.90
2022-08-03T15:10:52.185Z,33.84
2022-08-03T15:13:20.905Z,33.77
2022-08-03T15:15:49.599Z,33.84
2022-08-03T15:18:17.625Z,33.63
2022-08-03T15:20:46.843Z,33.62
2022-08-03T15:23:15.979Z,33.63
2022-08-03T15:26:28.792Z,33.56
2022-08-03T15:28:34.446Z,33.49
2022-08-03T15:31:05.291Z,33.46
2022-08-03T15:33:33.326Z,33.39
2022-08-03T15:36:03.609Z,33.26
2022-08-03T15:38:31.564Z,33.33
2022-08-03T15:40:59.432Z,33.14
2022-08-03T15:43:27.301Z,33.05
2022-08-03T15:46:27.870Z,33.12
2022-08-03T15:48:44.351Z,33.16
2022-08-03T15:51:12.366Z,33.19
2022-08-03T15:53:40.638Z,33.09
2022-08-03T15:56:13.318Z,32.92
2022-08-03T15:59:04.271Z,32.84
2022-08-03T16:01:33.883Z,32.79
2022-08-03T16:04:04.447Z,32.81
2022-08-03T16:06:35.843Z,32.67
2022-08-03T16:09:24.039Z,32.81
2022-08-03T16:11:55.103Z,32.76
2022-08-03T16:14:34.341Z,32.61
2022-08-03T16:17:07.340Z,32.65
2022-08-03T16:19:35.638Z,32.57
2022-08-03T16:22:03.461Z,32.57
2022-08-03T16:24:31.778Z,32.60
2022-08-03T16:27:00.797Z,32.51
2022-08-03T16:29:29.327Z,32.41
2022-08-03T16:31:57.240Z,32.38
2022-08-03T16:34:26.474Z,32.34
2022-08-03T16:36:54.615Z,32.27
2022-08-03T16:39:22.590Z,32.35
2022-08-03T16:41:54.078Z,32.30
2022-08-03T16:44:30.005Z,32.33
2022-08-03T16:46:57.927Z,32.26
2022-08-03T16:49:52.834Z,32.24
2022-08-03T16:52:16.523Z,32.19
2022-08-03T16:54:53.078Z,32.16
2022-08-03T16:57:31.886Z,32.04
2022-08-03T17:00:12.151Z,31.92
2022-08-03T17:03:00.874Z,31.92
2022-08-03T17:05:47.287Z,31.80
2022-08-03T17:08:15.735Z,31.83
2022-08-03T17:10:45.056Z,31.83
2022-08-03T17:13:21.810Z,31.83
2022-08-03T17:16:04.938Z,31.72
2022-08-03T17:18:38.708Z,31.62
2022-08-03T17:21:12.226Z,31.56
2022-08-03T17:23:45.300Z,31.52
2022-08-03T17:26:21.560Z,31.53
2022-08-03T17:28:56.481Z,31.47
2022-08-03T17:31:31.431Z,31.32
2022-08-03T17:34:00.981Z,31.29
2022-08-03T17:37:02.263Z,31.18
2022-08-03T17:39:35.865Z,31.12
2022-08-03T17:42:30.814Z,31.08
2022-08-03T17:44:58.303Z,31.01
2022-08-03T17:47:42.133Z,30.91
2022-08-03T17:50:24.297Z,30.88
2022-08-03T17:53:01.394Z,30.78
2022-08-03T17:55:54.958Z,30.77
2022-08-03T17:58:39.685Z,30.80
2022-08-03T18:02:03.134Z,30.74
2022-08-03T18:04:30.391Z,30.64
2022-08-03T18:07:11.311Z,30.52
2022-08-03T18:12:51.586Z,30.39
2022-08-03T18:15:25.295Z,30.30
2022-08-03T18:23:36.547Z,30.09
2022-08-03T18:26:10.687Z,30.08
2022-08-03T18:28:40.544Z,29.96
2022-08-03T18:31:10.083Z,29.83
2022-08-03T18:34:17.447Z,29.65
2022-08-03T18:36:31.172Z,29.55
2022-08-03T18:39:02.731Z,29.45
2022-08-03T18:41:34.712Z,29.28
2022-08-03T18:44:07.812Z,29.20
2022-08-03T18:46:48.667Z,29.06
2022-08-03T18:49:29.636Z,28.99
2022-08-03T18:52:04.825Z,28.89
2022-08-03T18:55:02.421Z,28.80
2022-08-03T18:57:40.332Z,28.69
2022-08-03T19:00:14.248Z,28.59
2022-08-03T19:02:49.345Z,28.48
2022-08-03T19:05:24.646Z,28.35
2022-08-03T19:08:17.328Z,28.18
2022-08-03T19:10:57.651Z,28.11
2022-08-03T19:13:36.031Z,27.98
2022-08-03T19:16:04.654Z,27.88
2022-08-03T19:18:38.809Z,27.85
2022-08-03T19:21:15.492Z,27.70
2022-08-03T19:23:46.172Z,27.57
2022-08-03T19:26:30.615Z,27.54
2022-08-03T19:29:00.547Z,27.46
2022-08-03T19:31:31.127Z,27.40
2022-08-03T19:34:04.128Z,27.33
2022-08-03T19:36:40.510Z,27.22
2022-08-03T19:39:12.605Z,27.10
2022-08-03T19:41:42.924Z,26.96
2022-08-03T19:44:27.106Z,26.88
2022-08-03T19:46:58.821Z,26.80
2022-08-03T19:50:05.264Z,26.68
2022-08-03T19:52:20.564Z,26.61
2022-08-03T19:54:54.695Z,26.59
2022-08-03T19:57:25.834Z,26.56
2022-08-03T19:59:58.204Z,26.55
2022-08-03T20:02:27.977Z,26.48
2022-08-03T20:04:59.952Z,26.42
2022-08-03T20:07:30.723Z,26.37
2022-08-03T20:09:59.575Z,26.31
2022-08-03T20:12:34.410Z,26.30
2022-08-03T20:15:10.558Z,26.27
2022-08-03T20:17:54.933Z,26.30
2022-08-03T20:20:28.143Z,26.21
2022-08-03T20:22:59.138Z,26.22
2022-08-03T20:28:26.815Z,25.96
2022-08-03T20:30:56.322Z,25.79
2022-08-03T20:36:12.581Z,25.54
2022-08-03T20:38:47.309Z,25.62
2022-08-03T20:41:15.877Z,25.54
2022-08-03T20:43:43.823Z,25.43
2022-08-03T20:46:38.243Z,25.40
2022-08-03T20:49:05.112Z,25.36
2022-08-03T20:51:49.972Z,25.30
2022-08-03T20:54:29.411Z,25.26
2022-08-03T20:56:59.231Z,25.28
2022-08-03T20:59:36.937Z,25.26
2022-08-03T21:02:30.018Z,25.20
2022-08-03T21:05:03.672Z,25.11
2022-08-03T21:08:04.422Z,25.02
2022-08-03T21:10:31.853Z,25.04
2022-08-03T21:12:57.103Z,30.48
2022-08-03T21:12:57.498Z,30.27
2022-08-03T21:12:57.779Z,30.16
2022-08-03T21:13:06.786Z,26.10
2022-08-03T21:13:14.083Z,25.65
2022-08-03T21:13:16.232Z,24.98
2022-08-03T21:16:01.125Z,24.98
2022-08-03T21:18:42.128Z,24.96
2022-08-03T21:21:14.753Z,24.94
2022-08-03T21:23:47.813Z,24.95
2022-08-03T21:26:17.644Z,24.82
2022-08-03T21:28:47.021Z,24.81
2022-08-03T21:31:24.479Z,24.79
2022-08-03T21:33:59.028Z,24.74
2022-08-03T21:36:28.416Z,24.75
2022-08-03T21:38:57.380Z,24.64
2022-08-03T21:41:26.790Z,24.46
2022-08-03T21:43:54.751Z,24.28
2022-08-03T21:46:23.676Z,24.09
2022-08-03T21:48:54.590Z,23.90
2022-08-03T21:51:26.660Z,23.85
2022-08-03T21:54:02.962Z,23.79
2022-08-03T21:56:37.152Z,23.79
2022-08-03T21:59:06.839Z,23.82
2022-08-03T22:01:36.690Z,23.76
2022-08-03T22:04:07.077Z,23.79
2022-08-03T22:06:36.656Z,23.72
2022-08-03T22:09:07.270Z,23.76
2022-08-03T22:11:35.566Z,23.65
2022-08-03T22:14:04.082Z,23.58
2022-08-03T22:16:32.345Z,23.46
2022-08-03T22:19:00.244Z,23.42
2022-08-03T22:21:36.164Z,23.41
2022-08-03T22:24:07.586Z,23.44
2022-08-03T22:26:36.798Z,23.41
2022-08-03T22:29:08.515Z,23.42
2022-08-03T22:31:58.315Z,23.39
2022-08-03T22:34:26.754Z,23.38
2022-08-03T22:36:57.885Z,23.38
2022-08-03T22:39:30.987Z,23.31
2022-08-03T22:41:59.707Z,23.15
2022-08-03T22:44:28.412Z,23.10
2022-08-03T22:46:56.652Z,23.10
2022-08-03T22:49:25.250Z,23.12
2022-08-03T22:51:54.423Z,23.10
2022-08-03T22:54:22.261Z,23.08
2022-08-03T22:56:52.592Z,23.07
2022-08-03T22:59:40.048Z,23.08
2022-08-03T23:02:16.028Z,23.07
2022-08-03T23:04:51.941Z,23.07
2022-08-03T23:07:23.038Z,23.07
2022-08-03T23:09:51.466Z,22.97
2022-08-03T23:12:21.000Z,22.84
2022-08-03T23:14:54.156Z,22.76
2022-08-03T23:17:23.974Z,22.76
2022-08-03T23:19:53.694Z,22.76
2022-08-03T23:22:29.895Z,22.81
2022-08-03T23:24:59.369Z,22.77
2022-08-03T23:27:29.365Z,22.71
2022-08-03T23:29:59.013Z,22.67
2022-08-03T23:32:27.535Z,22.70
2022-08-03T23:35:16.384Z,22.68
2022-08-03T23:38:04.276Z,22.64
2022-08-03T23:40:34.439Z,22.73
2022-08-03T23:43:04.378Z,22.77
2022-08-03T23:45:36.148Z,22.73
2022-08-03T23:48:04.002Z,22.60
2022-08-03T23:50:41.412Z,22.57
2022-08-03T23:53:13.408Z,22.52
2022-08-03T23:55:54.852Z,22.36
2022-08-03T23:58:38.408Z,22.28
